Flight Track Log - Related Links

Times and Time Zones

All times are in EDT time to prevent confusion due to time zone crossing. See the CES5387 flight status page for this flight to view local times or setup timezone preferences in your user account.

Time Position Orientation Groundspeed Altitude Reporting Facility
EDT Latitude Longitude Course Direction KTS MPH feet Rate Location/Type
Sat 10:16:00 AM 30.7784 116.0987 226° Southwest  Level Estimated
Sat 10:17:00 AM 30.7009 116.0074 225° Southwest  Level Estimated
Sat 10:18:00 AM 30.6233 115.9163 225° Southwest  Level Estimated
Sat 10:19:00 AM 30.5457 115.8254 225° Southwest  Level Estimated
Sat 10:20:00 AM 30.4680 115.7346 225° Southwest  Level Estimated
Sat 10:21:00 AM 30.3902 115.6439 225° Southwest  Level Estimated
Sat 10:22:00 AM 30.3124 115.5534 225° Southwest  Level Estimated
Sat 10:23:00 AM 30.2345 115.4630 225° Southwest  Level Estimated
Sat 10:24:00 AM 30.1565 115.3728 225° Southwest  Level Estimated
Sat 10:25:00 AM 30.0785 115.2827 225° Southwest  Level Estimated
Sat 10:26:00 AM 30.0005 115.1927 225° Southwest  Level Estimated
Sat 10:27:00 AM 29.9223 115.1030 225° Southwest  Level Estimated
Sat 10:28:00 AM 29.8442 115.0133 225° Southwest  Level Estimated
Sat 10:29:00 AM 29.7659 114.9238 225° Southwest  Level Estimated
Sat 10:30:00 AM 29.6876 114.8344 225° Southwest  Level Estimated
Sat 10:31:00 AM 29.6092 114.7451 225° Southwest  Level Estimated
Sat 10:32:00 AM 29.5308 114.6560 225° Southwest  Level Estimated
Sat 10:33:00 AM 29.4523 114.5671 225° Southwest  Level Estimated
Sat 10:34:00 AM 29.3738 114.4782 225° Southwest  Level Estimated
Sat 10:35:00 AM 29.2951 114.3895 225° Southwest  Level Estimated
Sat 10:36:00 AM 29.2165 114.3010 225° Southwest  Level Estimated
Sat 10:37:00 AM 29.1377 114.2126 224° Southwest  Level Estimated
Sat 10:38:00 AM 29.0590 114.1243 224° Southwest  Level Estimated
Sat 10:39:00 AM 28.9801 114.0361 224° Southwest  Level Estimated
Sat 10:40:00 AM 28.9012 113.9481 224° Southwest  Level Estimated
Sat 10:41:00 AM 28.8223 113.8602 224° Southwest  Level Estimated
Sat 10:42:00 AM 28.7432 113.7725 224° Southwest  Level Estimated
Sat 10:43:00 AM 28.6642 113.6849 224° Southwest  Level Estimated
Sat 10:44:00 AM 28.5851 113.5974 224° Southwest  Level Estimated
Sat 10:45:00 AM 28.5059 113.5100 224° Southwest  Level Estimated
Sat 10:46:00 AM 28.4266 113.4228 224° Southwest  Level Estimated
Sat 10:47:00 AM 28.3473 113.3357 224° Southwest  Level Estimated
Sat 10:48:00 AM 28.2680 113.2488 224° Southwest  Level Estimated
Sat 10:49:00 AM 28.1886 113.1619 224° Southwest  Level Estimated
Sat 10:50:00 AM 28.1091 113.0752 224° Southwest  Level Estimated
Sat 10:51:00 AM 28.0296 112.9887 224° Southwest  Level Estimated
Sat 10:52:00 AM 27.9501 112.9022 224° Southwest  Level Estimated
Sat 10:53:00 AM 27.8704 112.8159 224° Southwest  Level Estimated
Sat 10:54:00 AM 27.7908 112.7297 224° Southwest  Level Estimated
Sat 10:55:00 AM 27.7110 112.6436 224° Southwest  Level Estimated
Sat 10:56:00 AM 27.6313 112.5577 224° Southwest  Level Estimated
Sat 10:57:00 AM 27.5514 112.4719 224° Southwest  Level Estimated
Sat 10:58:00 AM 27.4715 112.3862 224° Southwest  Level Estimated
Sat 10:59:00 AM 27.3916 112.3006 224° Southwest  Level Estimated
Sat 11:00:00 AM 27.3116 112.2152 224° Southwest  Level Estimated
Sat 11:01:00 AM 27.2316 112.1299 223° Southwest  Level Estimated
Sat 11:02:00 AM 27.1515 112.0447 223° Southwest  Level Estimated
Sat 11:03:00 AM 27.0713 111.9596 223° Southwest  Level Estimated
Sat 11:04:00 AM 26.9911 111.8746 223° Southwest  Level Estimated
Sat 11:05:00 AM 26.9109 111.7898 223° Southwest  Level Estimated
Sat 11:06:00 AM 26.8306 111.7051 223° Southwest  Level Estimated
Sat 11:07:00 AM 26.7502 111.6205 223° Southwest  Level Estimated
Sat 11:08:00 AM 26.6698 111.5360 223° Southwest  Level Estimated
Sat 11:09:00 AM 26.5894 111.4517 223° Southwest  Level Estimated
Sat 11:10:00 AM 26.5089 111.3675 223° Southwest  Level Estimated
Sat 11:11:00 AM 26.4283 111.2833 223° Southwest  Level Estimated
Sat 11:12:00 AM 26.3477 111.1993 223° Southwest  Level Estimated
Sat 11:13:00 AM 26.2671 111.1155 223° Southwest  Level Estimated
Sat 11:14:00 AM 26.1864 111.0317 223° Southwest  Level Estimated
Sat 11:15:00 AM 26.1057 110.9481 223° Southwest  Level Estimated
Sat 11:16:00 AM 26.0249 110.8645 223° Southwest  Level Estimated
Sat 11:17:00 AM 25.9440 110.7811 223° Southwest  Level Estimated
Sat 11:18:00 AM 25.8631 110.6978 223° Southwest  Level Estimated
Sat 11:19:00 AM 25.7822 110.6146 223° Southwest  Level Estimated
Sat 11:20:00 AM 25.7012 110.5315 223° Southwest  Level Estimated
Sat 11:21:00 AM 25.6202 110.4486 223° Southwest  Level Estimated
Sat 11:22:00 AM 25.5391 110.3657 223° Southwest  Level Estimated
Sat 11:23:00 AM 25.4580 110.2830 223° Southwest  Level Estimated
Sat 11:24:00 AM 25.3769 110.2003 223° Southwest  Level Estimated
Sat 11:25:00 AM 25.2956 110.1178 223° Southwest  Level Estimated
Sat 11:26:00 AM 25.2181 110.0392 223° Southwest  Level Estimated
Sat 11:27:00 AM 25.2181 110.0392 214° Southwest  Level Estimated
Sat 11:28:00 AM 25.2181 110.0392 214° Southwest  Level Estimated
Sat 11:29:00 AM 25.2181 110.0392 214° Southwest  Level Estimated
Sat 11:30:00 AM 25.2181 110.0392 214° Southwest  Level Estimated
Sat 11:31:00 AM 25.2181 110.0392 214° Southwest  Level Estimated
Sat 11:32:00 AM 25.2181 110.0392 214° Southwest  Level Estimated
Sat 11:33:00 AM 25.2181 110.0392 214° Southwest  Level Estimated
Sat 11:34:00 AM 25.2181 110.0392 214° Southwest  Level Estimated
Sat 11:35:00 AM 25.2181 110.0392 214° Southwest  Level Estimated
Sat 11:36:00 AM 25.2181 110.0392 214° Southwest  Level Estimated
Sat 11:37:00 AM 25.2181 110.0392 214° Southwest  Level Estimated

Login

Don't have an account? Register now (free) for customized features, flight alerts, and more!